Time;durP1;ratioP1;P1;durP2;ratioP2;P2;SDS_P1;SDS_P2;PMS_P1;PMS_P2;Temp;Humidity;BMP_temperature;BMP_pressure;BME280_temperature;BME280_humidity;BME280_pressure;Samples;Min_cycle;Max_cycle;Signal;HPM_P1;HPM_P2
2023/12/15 00:00:06;;;;;;;7.13;4.15;;;10.70;53.70;;;;;;345655;28;1092;-57
2023/12/15 00:00:18;;;;;;;7.80;4.40;;;10.70;53.70;;;;;;345608;28;972;-58
2023/12/15 00:00:29;;;;;;;7.25;4.22;;;10.70;53.80;;;;;;345702;28;857;-57
2023/12/15 00:00:39;;;;;;;6.32;4.13;;;10.70;53.80;;;;;;345551;28;1371;-58
2023/12/15 00:00:50;;;;;;;6.30;4.10;;;10.70;53.80;;;;;;345703;28;1015;-59
2023/12/15 00:01:01;;;;;;;6.60;4.13;;;10.70;53.80;;;;;;345641;28;1002;-60
2023/12/15 00:01:12;;;;;;;7.32;4.45;;;10.70;53.80;;;;;;345695;28;945;-59
2023/12/15 00:01:22;;;;;;;8.48;4.47;;;10.70;53.80;;;;;;345622;28;860;-59
2023/12/15 00:01:33;;;;;;;8.60;4.43;;;10.70;53.80;;;;;;345760;28;1038;-58
2023/12/15 00:01:44;;;;;;;8.15;4.43;;;10.70;53.90;;;;;;345685;28;805;-58
2023/12/15 00:01:55;;;;;;;7.00;4.40;;;10.70;53.90;;;;;;345540;28;859;-57
2023/12/15 00:02:05;;;;;;;8.05;4.47;;;10.70;54.00;;;;;;345669;28;1039;-58
2023/12/15 00:02:16;;;;;;;9.18;4.28;;;10.70;54.10;;;;;;345584;28;1044;-58
2023/12/15 00:02:27;;;;;;;8.48;4.15;;;10.70;54.00;;;;;;345686;28;1015;-59
2023/12/15 00:02:38;;;;;;;11.18;4.40;;;10.70;54.00;;;;;;345570;28;1497;-59
2023/12/15 00:02:49;;;;;;;10.05;4.30;;;10.70;54.00;;;;;;345633;28;1111;-58
2023/12/15 00:03:00;;;;;;;11.03;4.37;;;10.70;54.10;;;;;;345564;28;1916;-58
2023/12/15 00:03:10;;;;;;;7.50;3.80;;;10.70;54.10;;;;;;345676;28;917;-58
2023/12/15 00:03:21;;;;;;;6.50;3.60;;;10.70;54.00;;;;;;345737;28;895;-58
2023/12/15 00:03:32;;;;;;;5.45;3.80;;;10.70;54.00;;;;;;345640;28;1146;-59
2023/12/15 00:03:43;;;;;;;5.97;4.10;;;10.70;54.00;;;;;;345640;28;1031;-59
2023/12/15 00:03:53;;;;;;;6.93;4.25;;;10.70;54.00;;;;;;345622;28;1047;-59
2023/12/15 00:04:04;;;;;;;7.05;4.20;;;10.70;54.10;;;;;;345658;28;821;-59
2023/12/15 00:04:17;;;;;;;6.53;4.20;;;10.70;54.10;;;;;;345710;28;913;-58
2023/12/15 00:04:28;;;;;;;5.47;3.70;;;10.70;54.10;;;;;;345625;28;954;-58
2023/12/15 00:04:39;;;;;;;5.78;3.80;;;10.60;54.20;;;;;;345644;28;1103;-58
2023/12/15 00:04:50;;;;;;;6.88;3.90;;;10.70;54.30;;;;;;345720;28;1843;-58
2023/12/15 00:05:00;;;;;;;6.75;3.88;;;10.70;54.30;;;;;;345703;28;980;-58
2023/12/15 00:05:12;;;;;;;6.80;4.00;;;10.70;54.30;;;;;;345600;28;1119;-58
2023/12/15 00:05:23;;;;;;;6.28;3.95;;;10.70;54.30;;;;;;345749;28;1008;-57
2023/12/15 00:05:34;;;;;;;7.80;4.13;;;10.70;54.30;;;;;;345669;28;1803;-58
2023/12/15 00:05:44;;;;;;;8.45;3.95;;;10.60;54.30;;;;;;345723;28;1044;-58
2023/12/15 00:05:57;;;;;;;8.20;3.80;;;10.60;54.30;;;;;;345586;28;1084;-58
2023/12/15 00:06:08;;;;;;;7.07;3.72;;;10.60;54.20;;;;;;345690;28;902;-58
2023/12/15 00:06:19;;;;;;;6.93;4.05;;;10.60;54.30;;;;;;345715;28;1023;-58
2023/12/15 00:06:30;;;;;;;7.85;4.40;;;10.60;54.30;;;;;;345639;28;1965;-58
2023/12/15 00:06:40;;;;;;;9.10;4.50;;;10.60;54.30;;;;;;345617;28;1039;-57
2023/12/15 00:06:51;;;;;;;9.38;4.40;;;10.60;54.30;;;;;;345651;28;1040;-58
2023/12/15 00:07:02;;;;;;;8.88;4.47;;;10.60;54.40;;;;;;345717;28;857;-59
2023/12/15 00:07:13;;;;;;;7.93;4.57;;;10.60;54.40;;;;;;345657;28;1913;-58
2023/12/15 00:07:23;;;;;;;7.28;4.43;;;10.60;54.40;;;;;;345531;28;1067;-58
2023/12/15 00:07:34;;;;;;;6.83;4.37;;;10.50;54.50;;;;;;345704;28;1003;-56
2023/12/15 00:07:45;;;;;;;7.57;4.30;;;10.60;54.50;;;;;;345646;28;1623;-59
2023/12/15 00:07:56;;;;;;;8.18;4.45;;;10.60;54.50;;;;;;345608;28;1170;-58
2023/12/15 00:08:07;;;;;;;8.23;4.68;;;10.60;54.60;;;;;;345653;28;915;-59
2023/12/15 00:08:18;;;;;;;8.73;4.55;;;10.60;54.60;;;;;;345661;28;968;-59
2023/12/15 00:08:29;;;;;;;8.63;4.60;;;10.60;54.50;;;;;;345628;28;1997;-57
2023/12/15 00:08:41;;;;;;;8.60;4.53;;;10.60;54.50;;;;;;345649;28;982;-57
2023/12/15 00:08:52;;;;;;;7.68;4.38;;;10.60;54.60;;;;;;345642;28;1190;-57
2023/12/15 00:09:02;;;;;;;7.13;4.22;;;10.60;54.50;;;;;;345656;28;1824;-57
2023/12/15 00:09:13;;;;;;;6.38;4.00;;;10.60;54.50;;;;;;345663;28;987;-57
2023/12/15 00:09:25;;;;;;;6.20;4.28;;;10.60;54.50;;;;;;345633;28;1222;-58
2023/12/15 00:09:36;;;;;;;7.53;4.18;;;10.60;54.50;;;;;;345629;28;988;-58
2023/12/15 00:09:46;;;;;;;7.85;3.85;;;10.60;54.50;;;;;;345599;28;1027;-58
2023/12/15 00:09:57;;;;;;;8.00;3.88;;;10.60;54.50;;;;;;345694;28;861;-59
2023/12/15 00:10:08;;;;;;;6.25;3.92;;;10.60;54.50;;;;;;345724;28;849;-58
2023/12/15 00:10:19;;;;;;;8.38;4.20;;;10.60;54.50;;;;;;345554;28;1035;-59
2023/12/15 00:10:31;;;;;;;8.40;4.10;;;10.60;54.50;;;;;;345633;28;1150;-57
2023/12/15 00:10:42;;;;;;;9.07;4.30;;;10.60;54.60;;;;;;345701;28;1047;-59
2023/12/15 00:10:52;;;;;;;7.80;4.32;;;10.60;54.60;;;;;;345651;28;888;-59
2023/12/15 00:11:04;;;;;;;10.40;4.60;;;10.60;54.60;;;;;;345702;28;1003;-58
2023/12/15 00:11:14;;;;;;;9.57;4.20;;;10.60;54.60;;;;;;345716;28;892;-58
2023/12/15 00:11:25;;;;;;;10.13;4.30;;;10.60;54.70;;;;;;345591;28;813;-58
2023/12/15 00:11:36;;;;;;;7.80;4.10;;;10.60;54.70;;;;;;345682;28;941;-59
2023/12/15 00:11:47;;;;;;;8.52;4.35;;;10.50;54.80;;;;;;345677;28;1023;-59
2023/12/15 00:11:57;;;;;;;8.73;4.15;;;10.50;54.70;;;;;;345551;28;1051;-58
2023/12/15 00:12:08;;;;;;;8.15;4.07;;;10.60;54.70;;;;;;345698;28;1150;-58
2023/12/15 00:12:19;;;;;;;7.65;3.95;;;10.60;54.70;;;;;;345640;28;1099;-59
2023/12/15 00:12:30;;;;;;;6.53;3.80;;;10.50;54.70;;;;;;345618;28;954;-58
2023/12/15 00:12:41;;;;;;;6.10;3.70;;;10.60;54.70;;;;;;345710;28;1047;-58
2023/12/15 00:12:51;;;;;;;6.47;3.85;;;10.50;54.60;;;;;;345658;28;1011;-58
2023/12/15 00:13:02;;;;;;;6.45;3.83;;;10.50;54.60;;;;;;345573;28;1050;-58
2023/12/15 00:13:13;;;;;;;6.70;3.83;;;10.60;54.60;;;;;;345701;28;841;-57
2023/12/15 00:13:24;;;;;;;6.50;3.92;;;10.50;54.70;;;;;;345648;28;1119;-58
2023/12/15 00:13:35;;;;;;;6.75;4.20;;;10.50;54.70;;;;;;345663;28;916;-58
2023/12/15 00:13:46;;;;;;;7.28;4.28;;;10.50;54.70;;;;;;345597;28;1581;-58
2023/12/15 00:13:56;;;;;;;7.47;4.10;;;10.50;54.70;;;;;;345696;28;841;-58
2023/12/15 00:14:07;;;;;;;7.10;4.00;;;10.50;54.70;;;;;;345710;28;834;-59
2023/12/15 00:14:18;;;;;;;6.05;3.70;;;10.50;54.60;;;;;;345673;28;1071;-58
2023/12/15 00:14:29;;;;;;;5.53;3.60;;;10.50;54.60;;;;;;345589;28;1036;-58
2023/12/15 00:14:39;;;;;;;6.53;3.83;;;10.50;54.60;;;;;;345639;28;1409;-57
2023/12/15 00:14:50;;;;;;;7.33;4.33;;;10.50;54.60;;;;;;345688;28;1032;-59
2023/12/15 00:15:02;;;;;;;7.13;4.50;;;10.50;54.70;;;;;;345694;28;941;-60
2023/12/15 00:15:13;;;;;;;7.25;4.50;;;10.60;54.60;;;;;;345617;28;931;-57
2023/12/15 00:15:24;;;;;;;7.00;4.30;;;10.50;54.60;;;;;;345652;28;822;-57
2023/12/15 00:15:35;;;;;;;8.05;4.20;;;10.50;54.60;;;;;;345603;28;1467;-57
2023/12/15 00:15:45;;;;;;;8.55;4.05;;;10.50;54.60;;;;;;345567;28;1084;-58
2023/12/15 00:15:56;;;;;;;8.60;3.90;;;10.50;54.60;;;;;;345668;28;845;-59
2023/12/15 00:16:07;;;;;;;8.75;3.95;;;10.50;54.50;;;;;;345669;28;992;-58
2023/12/15 00:16:18;;;;;;;8.32;4.20;;;10.50;54.60;;;;;;345640;28;944;-59
2023/12/15 00:16:29;;;;;;;7.68;4.10;;;10.50;54.60;;;;;;345626;28;1061;-57
2023/12/15 00:16:40;;;;;;;7.00;4.30;;;10.50;54.60;;;;;;345683;28;992;-57
2023/12/15 00:16:50;;;;;;;7.23;4.10;;;10.50;54.60;;;;;;345685;28;876;-58
2023/12/15 00:17:02;;;;;;;7.35;4.10;;;10.50;54.60;;;;;;345649;28;981;-57
2023/12/15 00:17:13;;;;;;;6.40;3.70;;;10.60;54.60;;;;;;345507;28;1079;-57
2023/12/15 00:17:24;;;;;;;6.28;3.80;;;10.50;54.60;;;;;;345686;28;1083;-58
2023/12/15 00:17:35;;;;;;;6.18;3.88;;;10.50;54.60;;;;;;345631;28;1432;-57
2023/12/15 00:17:45;;;;;;;6.87;3.90;;;10.60;54.60;;;;;;345695;28;936;-57
2023/12/15 00:17:56;;;;;;;7.20;4.20;;;10.50;54.60;;;;;;345591;28;1017;-58
2023/12/15 00:18:07;;;;;;;8.25;4.38;;;10.50;54.60;;;;;;345645;28;1027;-57
2023/12/15 00:18:18;;;;;;;8.80;4.68;;;10.50;54.60;;;;;;345650;28;988;-59
2023/12/15 00:18:29;;;;;;;9.32;4.45;;;10.50;54.60;;;;;;345701;28;861;-58
2023/12/15 00:18:39;;;;;;;9.50;4.65;;;10.50;54.70;;;;;;345609;28;991;-59
2023/12/15 00:18:50;;;;;;;8.40;4.50;;;10.50;54.70;;;;;;345639;28;1166;-58
2023/12/15 00:19:01;;;;;;;7.03;4.20;;;10.50;54.70;;;;;;345660;28;801;-58
2023/12/15 00:19:12;;;;;;;7.18;4.03;;;10.50;54.70;;;;;;345670;28;1147;-59
2023/12/15 00:19:23;;;;;;;7.43;4.00;;;10.50;54.70;;;;;;345522;28;1292;-57
2023/12/15 00:19:33;;;;;;;6.82;3.75;;;10.50;54.60;;;;;;345583;28;1545;-57
2023/12/15 00:19:44;;;;;;;5.32;3.30;;;10.50;54.60;;;;;;345657;28;1051;-57
2023/12/15 00:19:55;;;;;;;6.03;3.38;;;10.50;54.60;;;;;;345626;28;1133;-58
2023/12/15 00:20:07;;;;;;;6.75;3.60;;;10.50;54.50;;;;;;345562;28;1004;-58
2023/12/15 00:20:17;;;;;;;7.22;3.80;;;10.50;54.50;;;;;;345623;28;1093;-58
2023/12/15 00:20:28;;;;;;;6.85;3.80;;;10.50;54.50;;;;;;345639;28;1031;-58
2023/12/15 00:20:39;;;;;;;7.03;3.90;;;10.50;54.40;;;;;;345638;28;984;-57
2023/12/15 00:20:50;;;;;;;8.50;4.13;;;10.50;54.40;;;;;;345520;28;1047;-57
2023/12/15 00:21:00;;;;;;;8.38;4.30;;;10.50;54.50;;;;;;345588;28;1103;-58
2023/12/15 00:21:11;;;;;;;7.33;4.17;;;10.50;54.50;;;;;;345624;28;1020;-58
2023/12/15 00:21:23;;;;;;;5.85;3.88;;;10.50;54.50;;;;;;345672;28;1067;-57
2023/12/15 00:21:34;;;;;;;6.38;3.92;;;10.50;54.50;;;;;;345596;28;938;-58
2023/12/15 00:21:45;;;;;;;6.95;4.22;;;10.50;54.50;;;;;;345626;28;1091;-58
2023/12/15 00:21:55;;;;;;;6.63;3.92;;;10.50;54.50;;;;;;345678;28;838;-58
2023/12/15 00:22:06;;;;;;;5.53;3.53;;;10.50;54.40;;;;;;345716;28;920;-58
2023/12/15 00:22:17;;;;;;;5.33;3.40;;;10.50;54.40;;;;;;345535;28;1017;-60
2023/12/15 00:22:28;;;;;;;6.45;3.85;;;10.50;54.40;;;;;;345644;28;1103;-57
2023/12/15 00:22:38;;;;;;;7.35;4.10;;;10.50;54.40;;;;;;345615;28;1111;-58
2023/12/15 00:22:49;;;;;;;7.70;4.22;;;10.50;54.50;;;;;;345700;28;842;-59
2023/12/15 00:23:00;;;;;;;6.82;3.83;;;10.50;54.50;;;;;;345539;28;1163;-58
2023/12/15 00:23:11;;;;;;;7.78;3.70;;;10.50;54.50;;;;;;345606;28;1469;-58
2023/12/15 00:23:22;;;;;;;7.93;3.57;;;10.40;54.50;;;;;;345658;28;1071;-58
2023/12/15 00:23:34;;;;;;;7.27;3.40;;;10.50;54.50;;;;;;345655;28;1161;-58
2023/12/15 00:23:44;;;;;;;5.93;3.38;;;10.50;54.40;;;;;;345602;28;1004;-57
2023/12/15 00:23:55;;;;;;;5.90;3.30;;;10.50;54.40;;;;;;345640;28;1031;-58
2023/12/15 00:24:08;;;;;;;6.40;3.50;;;10.50;54.40;;;;;;345659;28;1098;-58
2023/12/15 00:24:19;;;;;;;6.80;3.67;;;10.40;54.40;;;;;;345566;28;1011;-58
2023/12/15 00:24:30;;;;;;;6.72;3.70;;;10.40;54.30;;;;;;345618;28;1279;-58
2023/12/15 00:24:41;;;;;;;6.47;3.55;;;10.50;54.40;;;;;;345629;28;1071;-57
2023/12/15 00:24:52;;;;;;;5.88;3.40;;;10.40;54.30;;;;;;345562;28;983;-57
2023/12/15 00:25:03;;;;;;;6.30;3.70;;;10.40;54.40;;;;;;345611;28;1163;-58
2023/12/15 00:25:14;;;;;;;6.55;4.05;;;10.40;54.30;;;;;;345699;28;1086;-57
2023/12/15 00:25:25;;;;;;;6.07;4.10;;;10.40;54.30;;;;;;345523;28;1346;-59
2023/12/15 00:25:36;;;;;;;6.45;4.22;;;10.40;54.30;;;;;;345629;28;1103;-59
2023/12/15 00:25:46;;;;;;;6.68;4.30;;;10.40;54.20;;;;;;345687;28;1027;-58
2023/12/15 00:25:57;;;;;;;6.93;4.20;;;10.40;54.30;;;;;;345584;28;1102;-59
2023/12/15 00:26:08;;;;;;;6.50;3.90;;;10.40;54.30;;;;;;345684;28;1016;-58
2023/12/15 00:26:19;;;;;;;6.20;3.47;;;10.30;54.30;;;;;;345654;28;1063;-58
2023/12/15 00:26:29;;;;;;;5.65;3.38;;;10.40;54.30;;;;;;345636;28;1910;-57
2023/12/15 00:26:40;;;;;;;6.13;3.65;;;10.40;54.30;;;;;;345574;28;1032;-58
2023/12/15 00:26:51;;;;;;;7.07;3.90;;;10.40;54.30;;;;;;345653;28;984;-58
2023/12/15 00:27:02;;;;;;;6.77;3.97;;;10.40;54.30;;;;;;345642;28;846;-57
2023/12/15 00:27:12;;;;;;;5.93;3.83;;;10.40;54.30;;;;;;345550;28;1088;-59
2023/12/15 00:27:23;;;;;;;5.93;3.90;;;10.40;54.30;;;;;;345644;28;1047;-58
2023/12/15 00:27:34;;;;;;;6.28;3.70;;;10.40;54.30;;;;;;345721;28;893;-58
2023/12/15 00:27:45;;;;;;;6.80;3.78;;;10.40;54.30;;;;;;345680;28;830;-59
2023/12/15 00:27:55;;;;;;;6.30;3.70;;;10.30;54.30;;;;;;345589;28;1035;-57
2023/12/15 00:28:06;;;;;;;5.78;3.63;;;10.30;54.30;;;;;;345644;28;854;-58
2023/12/15 00:28:17;;;;;;;6.15;3.85;;;10.40;54.30;;;;;;345613;28;1330;-57
2023/12/15 00:28:28;;;;;;;6.82;4.32;;;10.30;54.30;;;;;;345602;28;1004;-58
2023/12/15 00:28:39;;;;;;;7.63;4.60;;;10.40;54.30;;;;;;345584;28;938;-58
2023/12/15 00:28:49;;;;;;;6.45;4.10;;;10.30;54.30;;;;;;345643;28;1115;-57
2023/12/15 00:29:00;;;;;;;6.00;3.67;;;10.30;54.30;;;;;;345612;28;1075;-58
2023/12/15 00:29:11;;;;;;;5.78;3.60;;;10.30;54.30;;;;;;345647;28;1035;-58
2023/12/15 00:29:23;;;;;;;6.88;3.72;;;10.30;54.30;;;;;;345563;28;1047;-59
2023/12/15 00:29:33;;;;;;;7.97;3.63;;;10.30;54.30;;;;;;345654;28;1031;-58
2023/12/15 00:29:44;;;;;;;7.72;3.70;;;10.30;54.30;;;;;;345625;28;1035;-58
2023/12/15 00:29:55;;;;;;;6.53;3.57;;;10.30;54.30;;;;;;345653;28;974;-57
2023/12/15 00:30:06;;;;;;;6.30;3.63;;;10.30;54.40;;;;;;345554;28;1023;-59
2023/12/15 00:30:17;;;;;;;6.63;3.67;;;10.30;54.40;;;;;;345513;28;1135;-58
2023/12/15 00:30:28;;;;;;;7.18;3.63;;;10.30;54.40;;;;;;345576;28;1412;-57
2023/12/15 00:30:39;;;;;;;7.87;3.70;;;10.30;54.50;;;;;;345693;28;936;-58
2023/12/15 00:30:49;;;;;;;7.35;3.67;;;10.30;54.50;;;;;;345580;28;1040;-58
2023/12/15 00:31:00;;;;;;;6.57;3.80;;;10.30;54.50;;;;;;345565;28;1040;-58
2023/12/15 00:31:11;;;;;;;6.32;3.53;;;10.30;54.50;;;;;;345653;28;999;-60
2023/12/15 00:31:22;;;;;;;7.78;3.53;;;10.30;54.50;;;;;;345638;28;1070;-58
2023/12/15 00:31:32;;;;;;;7.83;3.33;;;10.30;54.50;;;;;;345531;28;1342;-57
2023/12/15 00:31:43;;;;;;;7.72;3.50;;;10.30;54.50;;;;;;345700;28;845;-58
2023/12/15 00:31:54;;;;;;;6.88;3.65;;;10.30;54.50;;;;;;345631;28;925;-59
2023/12/15 00:32:05;;;;;;;6.32;3.60;;;10.30;54.50;;;;;;345619;28;865;-59
2023/12/15 00:32:16;;;;;;;6.20;3.42;;;10.30;54.50;;;;;;345629;28;912;-59
2023/12/15 00:32:26;;;;;;;5.57;3.30;;;10.20;54.50;;;;;;345555;28;901;-58
2023/12/15 00:32:37;;;;;;;5.97;3.30;;;10.30;54.50;;;;;;345537;28;911;-58
2023/12/15 00:32:48;;;;;;;5.68;3.47;;;10.30;54.50;;;;;;345577;28;1008;-58
2023/12/15 00:32:59;;;;;;;6.25;3.40;;;10.30;54.50;;;;;;345409;28;1063;-58
2023/12/15 00:33:09;;;;;;;5.80;3.30;;;10.30;54.50;;;;;;345515;28;988;-57
2023/12/15 00:33:20;;;;;;;6.57;3.50;;;10.20;54.50;;;;;;345601;28;821;-58
2023/12/15 00:33:31;;;;;;;6.88;3.60;;;10.30;54.50;;;;;;345559;28;1160;-59
2023/12/15 00:33:42;;;;;;;6.73;3.70;;;10.20;54.40;;;;;;345480;28;1115;-59
2023/12/15 00:33:52;;;;;;;5.82;3.40;;;10.30;54.50;;;;;;345519;28;1004;-58
2023/12/15 00:34:03;;;;;;;5.75;3.53;;;10.30;54.50;;;;;;345556;28;948;-59
2023/12/15 00:34:14;;;;;;;6.13;3.53;;;10.20;54.50;;;;;;345500;28;1087;-57
2023/12/15 00:34:25;;;;;;;6.45;3.50;;;10.30;54.50;;;;;;345541;28;980;-58
2023/12/15 00:34:35;;;;;;;7.07;3.50;;;10.20;54.50;;;;;;345715;28;810;-59
2023/12/15 00:34:46;;;;;;;6.35;3.30;;;10.20;54.50;;;;;;345613;28;1143;-58
2023/12/15 00:34:57;;;;;;;6.00;3.28;;;10.20;54.50;;;;;;345651;28;1024;-59
2023/12/15 00:35:08;;;;;;;5.95;3.20;;;10.20;54.50;;;;;;345530;28;1103;-58
2023/12/15 00:35:19;;;;;;;7.15;3.35;;;10.20;54.50;;;;;;345667;28;896;-59
2023/12/15 00:35:29;;;;;;;7.57;3.20;;;10.20;54.50;;;;;;345678;28;1027;-58
2023/12/15 00:35:40;;;;;;;7.55;3.30;;;10.20;54.50;;;;;;345648;28;1027;-59
2023/12/15 00:35:51;;;;;;;6.93;3.45;;;10.20;54.50;;;;;;345578;28;1011;-59
2023/12/15 00:36:02;;;;;;;7.10;3.63;;;10.20;54.60;;;;;;345579;28;1158;-58
2023/12/15 00:36:12;;;;;;;6.78;3.63;;;10.20;54.60;;;;;;345648;28;881;-58
2023/12/15 00:36:23;;;;;;;6.50;3.45;;;10.20;54.70;;;;;;345649;28;892;-58
2023/12/15 00:36:34;;;;;;;6.73;3.43;;;10.20;54.70;;;;;;345533;28;1129;-59
2023/12/15 00:36:45;;;;;;;6.47;3.35;;;10.20;54.70;;;;;;345646;28;981;-58
2023/12/15 00:36:55;;;;;;;6.88;3.38;;;10.20;54.80;;;;;;345605;28;905;-58
2023/12/15 00:37:06;;;;;;;5.97;3.35;;;10.20;54.70;;;;;;345629;28;1143;-57
2023/12/15 00:37:17;;;;;;;6.33;3.47;;;10.20;54.70;;;;;;345571;28;1068;-58
2023/12/15 00:37:27;;;;;;;5.40;3.47;;;10.20;54.70;;;;;;345663;28;1055;-58
2023/12/15 00:37:38;;;;;;;5.70;3.55;;;10.20;54.70;;;;;;345621;28;885;-58
2023/12/15 00:37:49;;;;;;;6.85;3.63;;;10.20;54.80;;;;;;345586;28;1103;-58
2023/12/15 00:38:00;;;;;;;6.78;3.50;;;10.20;54.80;;;;;;345516;28;1119;-59
2023/12/15 00:38:11;;;;;;;6.40;3.55;;;10.20;54.80;;;;;;345658;28;837;-59
2023/12/15 00:38:21;;;;;;;5.80;3.40;;;10.20;54.80;;;;;;345666;28;1000;-58
2023/12/15 00:38:32;;;;;;;6.10;3.55;;;10.20;54.80;;;;;;345657;28;988;-57
2023/12/15 00:38:43;;;;;;;7.18;3.95;;;10.20;54.80;;;;;;345569;28;876;-58
2023/12/15 00:38:54;;;;;;;7.38;3.75;;;10.20;54.80;;;;;;345578;28;1044;-59
2023/12/15 00:39:05;;;;;;;7.45;3.67;;;10.20;54.80;;;;;;345579;28;1792;-58
2023/12/15 00:39:15;;;;;;;6.53;3.42;;;10.20;54.80;;;;;;345539;28;1379;-57
2023/12/15 00:39:26;;;;;;;5.93;3.47;;;10.20;54.80;;;;;;345653;28;881;-58
2023/12/15 00:39:37;;;;;;;5.78;3.30;;;10.20;54.80;;;;;;345587;28;2002;-58
2023/12/15 00:39:48;;;;;;;5.63;3.33;;;10.20;54.90;;;;;;345590;28;980;-58
2023/12/15 00:39:59;;;;;;;5.75;3.35;;;10.20;54.90;;;;;;345588;28;1040;-58
2023/12/15 00:40:10;;;;;;;5.20;3.30;;;10.20;54.80;;;;;;345625;28;1020;-58
2023/12/15 00:40:23;;;;;;;5.88;3.60;;;10.20;54.80;;;;;;345498;28;1222;-58
2023/12/15 00:40:34;;;;;;;6.18;3.50;;;10.20;54.80;;;;;;345626;28;849;-59
2023/12/15 00:40:44;;;;;;;5.60;3.30;;;10.20;54.90;;;;;;345593;28;1305;-58
2023/12/15 00:40:55;;;;;;;5.72;3.20;;;10.20;54.90;;;;;;345588;28;1807;-58
2023/12/15 00:41:06;;;;;;;5.35;3.28;;;10.20;54.90;;;;;;345592;28;1158;-58
2023/12/15 00:41:17;;;;;;;6.40;3.45;;;10.20;54.90;;;;;;345679;28;1035;-58
2023/12/15 00:41:28;;;;;;;6.97;3.60;;;10.20;54.90;;;;;;345548;28;1088;-58
2023/12/15 00:41:38;;;;;;;6.90;3.60;;;10.20;54.90;;;;;;345544;28;1457;-58
2023/12/15 00:41:49;;;;;;;5.97;3.33;;;10.20;54.90;;;;;;345629;28;1028;-58
2023/12/15 00:42:00;;;;;;;5.45;3.28;;;10.20;54.90;;;;;;345571;28;911;-58
2023/12/15 00:42:11;;;;;;;6.18;3.53;;;10.20;54.90;;;;;;345608;28;1282;-58
2023/12/15 00:42:21;;;;;;;7.03;3.57;;;10.20;54.90;;;;;;345622;28;1192;-58
2023/12/15 00:42:32;;;;;;;7.07;3.63;;;10.20;54.90;;;;;;345545;28;1043;-57
2023/12/15 00:42:43;;;;;;;7.57;3.50;;;10.20;54.90;;;;;;345618;28;1098;-58
2023/12/15 00:42:54;;;;;;;7.28;3.67;;;10.20;54.90;;;;;;345580;28;1028;-57
2023/12/15 00:43:05;;;;;;;6.63;3.53;;;10.20;55.00;;;;;;345604;28;863;-59
2023/12/15 00:43:15;;;;;;;6.88;3.70;;;10.20;55.00;;;;;;345623;28;984;-58
2023/12/15 00:43:26;;;;;;;7.10;3.47;;;10.20;55.00;;;;;;345591;28;1130;-58
2023/12/15 00:43:37;;;;;;;6.13;3.50;;;10.20;55.00;;;;;;345671;28;1011;-58
2023/12/15 00:43:48;;;;;;;5.60;3.58;;;10.20;55.00;;;;;;345695;28;885;-59
2023/12/15 00:43:59;;;;;;;5.18;3.58;;;10.20;55.00;;;;;;345539;28;902;-59
2023/12/15 00:44:09;;;;;;;6.05;3.65;;;10.20;55.00;;;;;;345650;28;1058;-58
2023/12/15 00:44:20;;;;;;;5.60;3.28;;;10.20;55.00;;;;;;345584;28;1115;-59
2023/12/15 00:44:32;;;;;;;5.25;3.03;;;10.20;55.00;;;;;;345599;28;1021;-58
2023/12/15 00:44:43;;;;;;;5.03;3.05;;;10.10;55.00;;;;;;345642;28;1127;-58
2023/12/15 00:44:56;;;;;;;5.05;3.20;;;10.20;55.00;;;;;;345526;28;1163;-59
2023/12/15 00:45:07;;;;;;;5.97;3.40;;;10.10;55.00;;;;;;345607;28;1806;-58
2023/12/15 00:45:18;;;;;;;6.50;3.42;;;10.20;55.00;;;;;;345565;28;1059;-58
2023/12/15 00:45:29;;;;;;;6.70;3.33;;;10.10;55.00;;;;;;345629;28;1446;-58
2023/12/15 00:45:42;;;;;;;6.07;3.27;;;10.10;55.00;;;;;;345633;28;1078;-58
2023/12/15 00:45:52;;;;;;;5.65;3.22;;;10.10;55.00;;;;;;345565;28;1285;-57
2023/12/15 00:46:04;;;;;;;6.45;3.22;;;10.10;55.00;;;;;;345649;28;912;-57
2023/12/15 00:46:14;;;;;;;6.78;3.30;;;10.20;55.10;;;;;;345634;28;952;-58
2023/12/15 00:46:25;;;;;;;6.20;3.60;;;10.10;55.10;;;;;;345585;28;1914;-59
2023/12/15 00:46:36;;;;;;;6.10;3.80;;;10.20;55.10;;;;;;345617;28;837;-59
2023/12/15 00:46:47;;;;;;;5.85;3.72;;;10.10;55.10;;;;;;345536;28;1024;-59
2023/12/15 00:46:57;;;;;;;5.43;3.55;;;10.10;55.10;;;;;;345588;28;1036;-58
2023/12/15 00:47:08;;;;;;;6.05;3.35;;;10.10;55.10;;;;;;345601;28;1162;-58
2023/12/15 00:47:19;;;;;;;7.60;3.70;;;10.10;55.10;;;;;;345599;28;881;-58
2023/12/15 00:47:30;;;;;;;8.70;3.90;;;10.20;55.10;;;;;;345616;28;1165;-58
2023/12/15 00:47:40;;;;;;;8.82;3.90;;;10.20;55.10;;;;;;345563;28;986;-58
2023/12/15 00:47:51;;;;;;;7.47;3.70;;;10.20;55.00;;;;;;345612;28;869;-60
2023/12/15 00:48:02;;;;;;;7.28;3.55;;;10.20;55.00;;;;;;345632;28;1813;-57
2023/12/15 00:48:13;;;;;;;6.80;3.42;;;10.20;55.00;;;;;;345648;28;964;-59
2023/12/15 00:48:24;;;;;;;6.55;3.33;;;10.20;55.00;;;;;;345668;28;920;-58
2023/12/15 00:48:34;;;;;;;6.60;3.53;;;10.20;55.00;;;;;;345533;28;1119;-58
2023/12/15 00:48:45;;;;;;;5.93;3.33;;;10.20;55.00;;;;;;345617;28;1032;-58
2023/12/15 00:48:56;;;;;;;7.00;3.60;;;10.20;55.00;;;;;;345629;28;1121;-56
2023/12/15 00:49:07;;;;;;;6.82;3.40;;;10.20;55.00;;;;;;345644;28;839;-59
2023/12/15 00:49:17;;;;;;;6.53;3.43;;;10.20;55.00;;;;;;345486;28;1338;-59
2023/12/15 00:49:28;;;;;;;6.67;3.13;;;10.20;55.10;;;;;;345421;28;1922;-59
2023/12/15 00:49:39;;;;;;;7.13;3.30;;;10.20;55.20;;;;;;345402;28;1170;-59
2023/12/15 00:49:50;;;;;;;7.35;3.40;;;10.20;55.20;;;;;;345433;28;1012;-59
2023/12/15 00:50:00;;;;;;;6.15;3.63;;;10.20;55.10;;;;;;345467;28;1509;-59
2023/12/15 00:50:12;;;;;;;6.00;3.80;;;10.20;55.20;;;;;;345631;28;830;-57
2023/12/15 00:50:23;;;;;;;6.00;3.80;;;10.10;55.20;;;;;;345601;28;1210;-59
2023/12/15 00:50:33;;;;;;;6.38;3.80;;;10.10;55.20;;;;;;345658;28;1788;-58
2023/12/15 00:50:44;;;;;;;5.87;3.40;;;10.10;55.10;;;;;;345486;28;1528;-58
2023/12/15 00:50:55;;;;;;;6.40;3.50;;;10.10;55.10;;;;;;345644;28;880;-57
2023/12/15 00:51:06;;;;;;;6.47;3.42;;;10.10;55.10;;;;;;345596;28;1032;-58
2023/12/15 00:51:17;;;;;;;6.47;3.42;;;10.10;55.10;;;;;;345642;28;854;-58
2023/12/15 00:51:29;;;;;;;7.28;3.40;;;10.10;55.10;;;;;;345461;28;1079;-58
2023/12/15 00:51:39;;;;;;;6.88;3.55;;;10.20;55.10;;;;;;345590;28;991;-58
2023/12/15 00:51:50;;;;;;;7.00;3.47;;;10.10;55.00;;;;;;345588;28;1163;-57
2023/12/15 00:52:01;;;;;;;6.88;3.50;;;10.10;55.10;;;;;;345594;28;1073;-58
2023/12/15 00:52:12;;;;;;;6.72;3.47;;;10.10;55.00;;;;;;345505;28;1127;-58
2023/12/15 00:52:23;;;;;;;5.57;3.33;;;10.10;55.10;;;;;;345658;28;1059;-59
2023/12/15 00:52:33;;;;;;;5.70;3.70;;;10.10;55.10;;;;;;345603;28;984;-57
2023/12/15 00:52:44;;;;;;;5.50;3.50;;;10.10;55.00;;;;;;345575;28;1064;-58
2023/12/15 00:52:57;;;;;;;6.50;3.67;;;10.10;55.00;;;;;;345519;28;1044;-58
2023/12/15 00:53:07;;;;;;;6.18;3.33;;;10.10;55.00;;;;;;345605;28;1096;-57
2023/12/15 00:53:20;;;;;;;5.60;3.20;;;10.10;55.00;;;;;;345568;28;1228;-58
2023/12/15 00:53:32;;;;;;;4.65;3.03;;;10.10;55.00;;;;;;345614;28;920;-59
2023/12/15 00:53:43;;;;;;;5.40;3.00;;;10.10;55.00;;;;;;345522;28;1011;-58
2023/12/15 00:53:53;;;;;;;6.20;3.10;;;10.10;55.00;;;;;;345563;28;1044;-59
2023/12/15 00:54:04;;;;;;;6.47;3.30;;;10.10;55.00;;;;;;345567;28;1913;-58
2023/12/15 00:54:15;;;;;;;5.53;3.23;;;10.10;55.10;;;;;;345636;28;1024;-59
2023/12/15 00:54:26;;;;;;;6.47;3.47;;;10.10;55.10;;;;;;345591;28;1002;-57
2023/12/15 00:54:37;;;;;;;6.50;3.42;;;10.10;55.00;;;;;;345618;28;1106;-58
2023/12/15 00:54:47;;;;;;;6.60;3.35;;;10.10;55.00;;;;;;345589;28;1055;-59
2023/12/15 00:54:58;;;;;;;5.60;3.22;;;10.10;55.10;;;;;;345600;28;908;-59
2023/12/15 00:55:09;;;;;;;6.05;3.25;;;10.10;55.10;;;;;;345647;28;846;-59
2023/12/15 00:55:20;;;;;;;5.93;3.33;;;10.10;55.00;;;;;;345540;28;1133;-58
2023/12/15 00:55:30;;;;;;;6.18;3.17;;;10.00;55.10;;;;;;345629;28;861;-59
2023/12/15 00:55:41;;;;;;;5.93;3.17;;;10.10;55.10;;;;;;345601;28;1059;-58
2023/12/15 00:55:52;;;;;;;5.20;2.92;;;10.10;55.10;;;;;;345621;28;1788;-57
2023/12/15 00:56:03;;;;;;;4.40;2.80;;;10.00;55.00;;;;;;345544;28;1001;-58
2023/12/15 00:56:14;;;;;;;4.47;3.00;;;10.10;55.10;;;;;;345488;28;1003;-59
2023/12/15 00:56:25;;;;;;;5.35;3.33;;;10.10;55.10;;;;;;345606;28;829;-58
2023/12/15 00:56:36;;;;;;;5.72;3.40;;;10.00;55.10;;;;;;345620;28;945;-57
2023/12/15 00:56:47;;;;;;;6.03;3.30;;;10.00;55.20;;;;;;345626;28;1059;-59
2023/12/15 00:56:58;;;;;;;5.93;3.20;;;10.00;55.10;;;;;;345544;28;975;-58
2023/12/15 00:57:08;;;;;;;6.35;3.30;;;10.00;55.10;;;;;;345550;28;1270;-58
2023/12/15 00:57:19;;;;;;;6.17;3.33;;;10.00;55.20;;;;;;345598;28;1442;-58
2023/12/15 00:57:30;;;;;;;5.75;3.30;;;10.00;55.10;;;;;;345585;28;1083;-58
2023/12/15 00:57:41;;;;;;;6.85;3.50;;;10.00;55.20;;;;;;345588;28;972;-58
2023/12/15 00:57:51;;;;;;;7.03;3.40;;;10.00;55.10;;;;;;345557;28;1418;-59
2023/12/15 00:58:02;;;;;;;6.35;3.35;;;10.00;55.20;;;;;;345560;28;1805;-58
2023/12/15 00:58:13;;;;;;;5.30;3.07;;;10.00;55.10;;;;;;345611;28;1916;-58
2023/12/15 00:58:24;;;;;;;5.70;3.17;;;10.00;55.10;;;;;;345591;28;980;-58